sensor_id;sensor_type;location;lat;lon;timestamp;temperature;humidity
59973;DHT22;55298;-36.624;-64.282;2022-07-22T00:01:06;12.20;35.10
59973;DHT22;55298;-36.624;-64.282;2022-07-22T00:03:35;12.10;35.20
59973;DHT22;55298;-36.624;-64.282;2022-07-22T00:06:04;12.10;35.20
59973;DHT22;55298;-36.624;-64.282;2022-07-22T00:08:33;12.10;36.20
59973;DHT22;55298;-36.624;-64.282;2022-07-22T00:11:01;12.10;34.80
59973;DHT22;55298;-36.624;-64.282;2022-07-22T00:13:29;12.10;35.30
59973;DHT22;55298;-36.624;-64.282;2022-07-22T00:15:58;12.10;35.30
59973;DHT22;55298;-36.624;-64.282;2022-07-22T00:18:26;12.00;35.10
59973;DHT22;55298;-36.624;-64.282;2022-07-22T00:20:56;12.00;36.10
59973;DHT22;55298;-36.624;-64.282;2022-07-22T00:23:25;12.00;35.20
59973;DHT22;55298;-36.624;-64.282;2022-07-22T00:25:53;12.00;35.70
59973;DHT22;55298;-36.624;-64.282;2022-07-22T00:28:23;11.90;35.30
59973;DHT22;55298;-36.624;-64.282;2022-07-22T00:30:51;11.80;35.70
59973;DHT22;55298;-36.624;-64.282;2022-07-22T00:33:21;11.60;35.80
59973;DHT22;55298;-36.624;-64.282;2022-07-22T00:35:49;11.50;36.00
59973;DHT22;55298;-36.624;-64.282;2022-07-22T00:38:18;11.50;36.40
59973;DHT22;55298;-36.624;-64.282;2022-07-22T00:40:46;11.50;36.50
59973;DHT22;55298;-36.624;-64.282;2022-07-22T00:43:15;11.40;37.00
59973;DHT22;55298;-36.624;-64.282;2022-07-22T00:45:43;11.10;36.50
59973;DHT22;55298;-36.624;-64.282;2022-07-22T00:48:11;11.20;36.70
59973;DHT22;55298;-36.624;-64.282;2022-07-22T00:50:40;11.20;37.20
59973;DHT22;55298;-36.624;-64.282;2022-07-22T00:53:09;11.20;37.30
59973;DHT22;55298;-36.624;-64.282;2022-07-22T00:55:39;11.10;37.10
59973;DHT22;55298;-36.624;-64.282;2022-07-22T00:58:08;11.10;36.90
59973;DHT22;55298;-36.624;-64.282;2022-07-22T01:00:36;11.10;37.40
59973;DHT22;55298;-36.624;-64.282;2022-07-22T01:03:04;11.10;37.40
59973;DHT22;55298;-36.624;-64.282;2022-07-22T01:05:33;11.20;37.20
59973;DHT22;55298;-36.624;-64.282;2022-07-22T01:08:05;11.10;37.50
59973;DHT22;55298;-36.624;-64.282;2022-07-22T01:10:33;11.00;37.60
59973;DHT22;55298;-36.624;-64.282;2022-07-22T01:13:03;11.00;36.60
59973;DHT22;55298;-36.624;-64.282;2022-07-22T01:15:33;11.00;37.10
59973;DHT22;55298;-36.624;-64.282;2022-07-22T01:18:03;10.90;37.30
59973;DHT22;55298;-36.624;-64.282;2022-07-22T01:20:31;10.80;37.70
59973;DHT22;55298;-36.624;-64.282;2022-07-22T01:23:00;10.80;38.00
59973;DHT22;55298;-36.624;-64.282;2022-07-22T01:25:28;10.80;37.30
59973;DHT22;55298;-36.624;-64.282;2022-07-22T01:27:57;10.80;37.80
59973;DHT22;55298;-36.624;-64.282;2022-07-22T01:30:25;10.80;37.70
59973;DHT22;55298;-36.624;-64.282;2022-07-22T01:32:54;10.80;38.40
59973;DHT22;55298;-36.624;-64.282;2022-07-22T01:35:23;10.80;38.00
59973;DHT22;55298;-36.624;-64.282;2022-07-22T01:37:51;10.90;37.60
59973;DHT22;55298;-36.624;-64.282;2022-07-22T01:40:19;10.80;37.80
59973;DHT22;55298;-36.624;-64.282;2022-07-22T01:42:48;10.70;37.60
59973;DHT22;55298;-36.624;-64.282;2022-07-22T01:45:16;10.60;37.50
59973;DHT22;55298;-36.624;-64.282;2022-07-22T01:47:45;10.60;37.90
59973;DHT22;55298;-36.624;-64.282;2022-07-22T01:50:14;10.60;38.10
59973;DHT22;55298;-36.624;-64.282;2022-07-22T01:52:42;10.60;38.30
59973;DHT22;55298;-36.624;-64.282;2022-07-22T01:55:11;10.40;38.90
59973;DHT22;55298;-36.624;-64.282;2022-07-22T01:57:41;10.40;39.40
59973;DHT22;55298;-36.624;-64.282;2022-07-22T02:00:10;10.30;39.20
59973;DHT22;55298;-36.624;-64.282;2022-07-22T02:02:40;10.30;38.80
59973;DHT22;55298;-36.624;-64.282;2022-07-22T02:05:08;10.40;38.90
59973;DHT22;55298;-36.624;-64.282;2022-07-22T02:07:38;10.20;39.90
59973;DHT22;55298;-36.624;-64.282;2022-07-22T02:10:06;10.20;40.10
59973;DHT22;55298;-36.624;-64.282;2022-07-22T02:12:36;10.10;40.80
59973;DHT22;55298;-36.624;-64.282;2022-07-22T02:15:04;10.10;40.10
59973;DHT22;55298;-36.624;-64.282;2022-07-22T02:17:35;10.20;39.10
59973;DHT22;55298;-36.624;-64.282;2022-07-22T02:20:04;10.20;38.70
59973;DHT22;55298;-36.624;-64.282;2022-07-22T02:22:33;10.20;39.30
59973;DHT22;55298;-36.624;-64.282;2022-07-22T02:25:01;10.10;39.70
59973;DHT22;55298;-36.624;-64.282;2022-07-22T02:27:30;10.00;40.20
59973;DHT22;55298;-36.624;-64.282;2022-07-22T02:29:58;10.00;40.30
59973;DHT22;55298;-36.624;-64.282;2022-07-22T02:32:27;10.00;40.20
59973;DHT22;55298;-36.624;-64.282;2022-07-22T02:34:58;10.00;40.50
59973;DHT22;55298;-36.624;-64.282;2022-07-22T02:37:27;10.00;41.10
59973;DHT22;55298;-36.624;-64.282;2022-07-22T02:39:55;10.00;40.60
59973;DHT22;55298;-36.624;-64.282;2022-07-22T02:42:23;9.90;40.40
59973;DHT22;55298;-36.624;-64.282;2022-07-22T02:44:53;9.90;40.50
59973;DHT22;55298;-36.624;-64.282;2022-07-22T02:47:22;9.90;40.30
59973;DHT22;55298;-36.624;-64.282;2022-07-22T02:49:51;9.70;41.30
59973;DHT22;55298;-36.624;-64.282;2022-07-22T02:52:19;9.60;41.90
59973;DHT22;55298;-36.624;-64.282;2022-07-22T02:54:48;9.50;42.80
59973;DHT22;55298;-36.624;-64.282;2022-07-22T02:57:17;9.60;42.20
59973;DHT22;55298;-36.624;-64.282;2022-07-22T02:59:45;9.50;42.40
59973;DHT22;55298;-36.624;-64.282;2022-07-22T03:02:14;9.50;43.10
59973;DHT22;55298;-36.624;-64.282;2022-07-22T03:04:43;9.30;44.40
59973;DHT22;55298;-36.624;-64.282;2022-07-22T03:07:12;9.20;45.40
59973;DHT22;55298;-36.624;-64.282;2022-07-22T03:09:40;9.30;45.10
59973;DHT22;55298;-36.624;-64.282;2022-07-22T03:12:09;9.20;45.50
59973;DHT22;55298;-36.624;-64.282;2022-07-22T03:14:37;9.20;45.60
59973;DHT22;55298;-36.624;-64.282;2022-07-22T03:17:06;9.10;45.50
59973;DHT22;55298;-36.624;-64.282;2022-07-22T03:19:34;9.00;46.00
59973;DHT22;55298;-36.624;-64.282;2022-07-22T03:22:03;9.00;46.00
59973;DHT22;55298;-36.624;-64.282;2022-07-22T03:24:31;8.90;46.50
59973;DHT22;55298;-36.624;-64.282;2022-07-22T03:27:01;8.80;46.80
59973;DHT22;55298;-36.624;-64.282;2022-07-22T03:29:29;8.80;46.30
59973;DHT22;55298;-36.624;-64.282;2022-07-22T03:31:58;8.80;46.40
59973;DHT22;55298;-36.624;-64.282;2022-07-22T03:34:26;8.80;46.90
59973;DHT22;55298;-36.624;-64.282;2022-07-22T03:36:55;8.90;46.30
59973;DHT22;55298;-36.624;-64.282;2022-07-22T03:39:23;8.90;46.10
59973;DHT22;55298;-36.624;-64.282;2022-07-22T03:41:51;8.80;46.30
59973;DHT22;55298;-36.624;-64.282;2022-07-22T03:44:23;8.80;46.70
59973;DHT22;55298;-36.624;-64.282;2022-07-22T03:46:52;8.80;46.30
59973;DHT22;55298;-36.624;-64.282;2022-07-22T03:49:20;8.80;44.70
59973;DHT22;55298;-36.624;-64.282;2022-07-22T03:51:49;8.70;45.20
59973;DHT22;55298;-36.624;-64.282;2022-07-22T03:54:18;8.70;45.10
59973;DHT22;55298;-36.624;-64.282;2022-07-22T03:56:47;8.70;44.90
59973;DHT22;55298;-36.624;-64.282;2022-07-22T03:59:16;8.90;43.90
59973;DHT22;55298;-36.624;-64.282;2022-07-22T04:02:06;8.90;44.20
59973;DHT22;55298;-36.624;-64.282;2022-07-22T04:04:34;8.80;44.60
59973;DHT22;55298;-36.624;-64.282;2022-07-22T04:07:04;8.80;44.70
59973;DHT22;55298;-36.624;-64.282;2022-07-22T04:09:32;8.70;44.40
59973;DHT22;55298;-36.624;-64.282;2022-07-22T04:12:01;8.60;44.70
59973;DHT22;55298;-36.624;-64.282;2022-07-22T04:14:29;8.50;44.90
59973;DHT22;55298;-36.624;-64.282;2022-07-22T04:16:58;8.50;44.70
59973;DHT22;55298;-36.624;-64.282;2022-07-22T04:19:27;8.60;44.90
59973;DHT22;55298;-36.624;-64.282;2022-07-22T04:21:56;8.50;45.00
59973;DHT22;55298;-36.624;-64.282;2022-07-22T04:24:24;8.50;45.00
59973;DHT22;55298;-36.624;-64.282;2022-07-22T04:26:52;8.60;44.40
59973;DHT22;55298;-36.624;-64.282;2022-07-22T04:29:22;8.50;44.70
59973;DHT22;55298;-36.624;-64.282;2022-07-22T04:31:51;8.50;45.20
59973;DHT22;55298;-36.624;-64.282;2022-07-22T04:34:19;8.40;45.20
59973;DHT22;55298;-36.624;-64.282;2022-07-22T04:36:47;8.40;45.80
59973;DHT22;55298;-36.624;-64.282;2022-07-22T04:39:15;8.50;45.60
59973;DHT22;55298;-36.624;-64.282;2022-07-22T04:41:45;8.50;45.40
59973;DHT22;55298;-36.624;-64.282;2022-07-22T04:44:12;8.50;44.70
59973;DHT22;55298;-36.624;-64.282;2022-07-22T04:46:42;8.60;45.00
59973;DHT22;55298;-36.624;-64.282;2022-07-22T04:49:09;8.60;45.50
59973;DHT22;55298;-36.624;-64.282;2022-07-22T04:51:39;8.60;45.70
59973;DHT22;55298;-36.624;-64.282;2022-07-22T04:54:07;8.60;45.40
59973;DHT22;55298;-36.624;-64.282;2022-07-22T04:56:36;8.60;45.50
59973;DHT22;55298;-36.624;-64.282;2022-07-22T04:59:04;8.50;45.50
59973;DHT22;55298;-36.624;-64.282;2022-07-22T05:01:32;8.50;45.60
59973;DHT22;55298;-36.624;-64.282;2022-07-22T05:04:00;8.50;45.80
59973;DHT22;55298;-36.624;-64.282;2022-07-22T05:06:31;8.50;45.30
59973;DHT22;55298;-36.624;-64.282;2022-07-22T05:08:59;8.50;45.70
59973;DHT22;55298;-36.624;-64.282;2022-07-22T05:11:28;8.50;45.50
59973;DHT22;55298;-36.624;-64.282;2022-07-22T05:13:56;8.40;45.30
59973;DHT22;55298;-36.624;-64.282;2022-07-22T05:16:25;8.40;45.10
59973;DHT22;55298;-36.624;-64.282;2022-07-22T05:18:53;8.40;45.60
59973;DHT22;55298;-36.624;-64.282;2022-07-22T05:21:23;8.30;45.50
59973;DHT22;55298;-36.624;-64.282;2022-07-22T05:23:50;8.40;44.90
59973;DHT22;55298;-36.624;-64.282;2022-07-22T05:26:20;8.40;44.60
59973;DHT22;55298;-36.624;-64.282;2022-07-22T05:28:48;8.40;45.10
59973;DHT22;55298;-36.624;-64.282;2022-07-22T05:31:17;8.30;45.10
59973;DHT22;55298;-36.624;-64.282;2022-07-22T05:33:45;8.30;45.60
59973;DHT22;55298;-36.624;-64.282;2022-07-22T05:36:14;8.40;45.00
59973;DHT22;55298;-36.624;-64.282;2022-07-22T05:38:42;8.40;45.10
59973;DHT22;55298;-36.624;-64.282;2022-07-22T05:41:11;8.40;45.20
59973;DHT22;55298;-36.624;-64.282;2022-07-22T05:43:39;8.40;45.00
59973;DHT22;55298;-36.624;-64.282;2022-07-22T05:46:08;8.50;44.90
59973;DHT22;55298;-36.624;-64.282;2022-07-22T05:48:37;8.50;44.90
59973;DHT22;55298;-36.624;-64.282;2022-07-22T05:51:11;8.60;44.90
59973;DHT22;55298;-36.624;-64.282;2022-07-22T05:53:41;8.60;44.90
59973;DHT22;55298;-36.624;-64.282;2022-07-22T05:56:10;8.50;45.40
59973;DHT22;55298;-36.624;-64.282;2022-07-22T05:58:41;8.30;46.10
59973;DHT22;55298;-36.624;-64.282;2022-07-22T06:01:10;8.20;46.10
59973;DHT22;55298;-36.624;-64.282;2022-07-22T06:03:40;8.20;46.00
59973;DHT22;55298;-36.624;-64.282;2022-07-22T06:06:12;8.20;46.50
59973;DHT22;55298;-36.624;-64.282;2022-07-22T06:08:40;8.30;46.10
59973;DHT22;55298;-36.624;-64.282;2022-07-22T06:11:09;8.20;46.50
59973;DHT22;55298;-36.624;-64.282;2022-07-22T06:13:38;8.20;46.40
59973;DHT22;55298;-36.624;-64.282;2022-07-22T06:16:06;8.40;46.10
59973;DHT22;55298;-36.624;-64.282;2022-07-22T06:18:34;8.50;45.80
59973;DHT22;55298;-36.624;-64.282;2022-07-22T06:21:05;8.60;45.70
59973;DHT22;55298;-36.624;-64.282;2022-07-22T06:23:34;8.50;45.60
59973;DHT22;55298;-36.624;-64.282;2022-07-22T06:26:03;8.40;46.10
59973;DHT22;55298;-36.624;-64.282;2022-07-22T06:28:32;8.40;46.30
59973;DHT22;55298;-36.624;-64.282;2022-07-22T06:31:00;8.40;46.10
59973;DHT22;55298;-36.624;-64.282;2022-07-22T06:33:30;8.50;45.90
59973;DHT22;55298;-36.624;-64.282;2022-07-22T06:36:00;8.50;45.80
59973;DHT22;55298;-36.624;-64.282;2022-07-22T06:38:29;8.40;45.70
59973;DHT22;55298;-36.624;-64.282;2022-07-22T06:40:57;8.40;45.90
59973;DHT22;55298;-36.624;-64.282;2022-07-22T06:43:26;8.40;46.00
59973;DHT22;55298;-36.624;-64.282;2022-07-22T06:45:55;8.40;45.80
59973;DHT22;55298;-36.624;-64.282;2022-07-22T06:48:24;8.50;45.90
59973;DHT22;55298;-36.624;-64.282;2022-07-22T06:50:53;8.30;45.60
59973;DHT22;55298;-36.624;-64.282;2022-07-22T06:53:24;8.30;46.70
59973;DHT22;55298;-36.624;-64.282;2022-07-22T06:55:53;8.30;46.30
59973;DHT22;55298;-36.624;-64.282;2022-07-22T06:58:22;8.20;46.70
59973;DHT22;55298;-36.624;-64.282;2022-07-22T07:00:52;8.00;47.00
59973;DHT22;55298;-36.624;-64.282;2022-07-22T07:03:22;8.00;47.60
59973;DHT22;55298;-36.624;-64.282;2022-07-22T07:05:52;7.90;47.70
59973;DHT22;55298;-36.624;-64.282;2022-07-22T07:08:20;7.90;48.30
59973;DHT22;55298;-36.624;-64.282;2022-07-22T07:10:49;7.80;48.20
59973;DHT22;55298;-36.624;-64.282;2022-07-22T07:13:17;7.80;48.50
59973;DHT22;55298;-36.624;-64.282;2022-07-22T07:15:46;7.80;49.00
59973;DHT22;55298;-36.624;-64.282;2022-07-22T07:18:14;7.70;49.00
59973;DHT22;55298;-36.624;-64.282;2022-07-22T07:20:43;7.80;49.20
59973;DHT22;55298;-36.624;-64.282;2022-07-22T07:23:11;7.80;49.30
59973;DHT22;55298;-36.624;-64.282;2022-07-22T07:25:40;7.80;49.30
59973;DHT22;55298;-36.624;-64.282;2022-07-22T07:28:08;7.90;49.30
59973;DHT22;55298;-36.624;-64.282;2022-07-22T07:30:37;7.90;49.70
59973;DHT22;55298;-36.624;-64.282;2022-07-22T07:33:07;8.00;49.30
59973;DHT22;55298;-36.624;-64.282;2022-07-22T07:35:35;7.80;49.70
59973;DHT22;55298;-36.624;-64.282;2022-07-22T07:38:05;7.80;50.30
59973;DHT22;55298;-36.624;-64.282;2022-07-22T07:40:35;7.90;50.50
59973;DHT22;55298;-36.624;-64.282;2022-07-22T07:43:04;8.00;50.30
59973;DHT22;55298;-36.624;-64.282;2022-07-22T07:45:33;8.20;49.90
59973;DHT22;55298;-36.624;-64.282;2022-07-22T07:48:01;8.10;49.90
59973;DHT22;55298;-36.624;-64.282;2022-07-22T07:50:30;8.10;50.30
59973;DHT22;55298;-36.624;-64.282;2022-07-22T07:52:59;8.00;50.00
59973;DHT22;55298;-36.624;-64.282;2022-07-22T07:55:28;8.00;50.50
59973;DHT22;55298;-36.624;-64.282;2022-07-22T07:57:57;8.10;50.80
59973;DHT22;55298;-36.624;-64.282;2022-07-22T08:00:26;8.00;51.30
59973;DHT22;55298;-36.624;-64.282;2022-07-22T08:02:56;8.00;51.50
59973;DHT22;55298;-36.624;-64.282;2022-07-22T08:05:25;8.10;51.30
59973;DHT22;55298;-36.624;-64.282;2022-07-22T08:07:54;8.10;51.40
59973;DHT22;55298;-36.624;-64.282;2022-07-22T08:10:23;8.10;51.50
59973;DHT22;55298;-36.624;-64.282;2022-07-22T08:12:54;8.00;51.70
59973;DHT22;55298;-36.624;-64.282;2022-07-22T08:15:25;8.00;52.00
59973;DHT22;55298;-36.624;-64.282;2022-07-22T08:17:54;7.90;52.30
59973;DHT22;55298;-36.624;-64.282;2022-07-22T08:20:24;8.00;51.80
59973;DHT22;55298;-36.624;-64.282;2022-07-22T08:22:52;7.90;52.10
59973;DHT22;55298;-36.624;-64.282;2022-07-22T08:25:23;7.80;52.60
59973;DHT22;55298;-36.624;-64.282;2022-07-22T08:27:53;7.70;53.00
59973;DHT22;55298;-36.624;-64.282;2022-07-22T08:30:22;7.60;53.10
59973;DHT22;55298;-36.624;-64.282;2022-07-22T08:32:54;7.60;53.20
59973;DHT22;55298;-36.624;-64.282;2022-07-22T08:35:23;7.60;52.90
59973;DHT22;55298;-36.624;-64.282;2022-07-22T08:37:53;7.60;52.90
59973;DHT22;55298;-36.624;-64.282;2022-07-22T08:40:21;7.60;53.30
59973;DHT22;55298;-36.624;-64.282;2022-07-22T08:42:51;7.50;53.50
59973;DHT22;55298;-36.624;-64.282;2022-07-22T08:45:20;7.50;53.60
59973;DHT22;55298;-36.624;-64.282;2022-07-22T08:47:50;7.40;54.00
59973;DHT22;55298;-36.624;-64.282;2022-07-22T08:50:18;7.10;53.50
59973;DHT22;55298;-36.624;-64.282;2022-07-22T08:52:48;7.00;54.00
59973;DHT22;55298;-36.624;-64.282;2022-07-22T08:55:16;6.60;54.40
59973;DHT22;55298;-36.624;-64.282;2022-07-22T08:57:46;6.50;54.80
59973;DHT22;55298;-36.624;-64.282;2022-07-22T09:00:19;6.50;55.20
59973;DHT22;55298;-36.624;-64.282;2022-07-22T09:02:49;6.50;55.70
59973;DHT22;55298;-36.624;-64.282;2022-07-22T09:05:18;6.50;55.70
59973;DHT22;55298;-36.624;-64.282;2022-07-22T09:07:47;6.30;55.80
59973;DHT22;55298;-36.624;-64.282;2022-07-22T09:10:17;6.30;56.10
59973;DHT22;55298;-36.624;-64.282;2022-07-22T09:12:55;6.20;56.50
59973;DHT22;55298;-36.624;-64.282;2022-07-22T09:15:29;6.10;56.80
59973;DHT22;55298;-36.624;-64.282;2022-07-22T09:18:00;5.90;56.60
59973;DHT22;55298;-36.624;-64.282;2022-07-22T09:20:28;5.90;57.10
59973;DHT22;55298;-36.624;-64.282;2022-07-22T09:22:58;5.60;57.70
59973;DHT22;55298;-36.624;-64.282;2022-07-22T09:25:35;5.20;59.30
59973;DHT22;55298;-36.624;-64.282;2022-07-22T09:28:17;5.10;60.20
59973;DHT22;55298;-36.624;-64.282;2022-07-22T09:30:51;5.10;61.10
59973;DHT22;55298;-36.624;-64.282;2022-07-22T09:33:22;5.00;61.30
59973;DHT22;55298;-36.624;-64.282;2022-07-22T09:35:52;4.90;61.90
59973;DHT22;55298;-36.624;-64.282;2022-07-22T09:38:30;4.90;63.70
59973;DHT22;55298;-36.624;-64.282;2022-07-22T09:41:00;4.90;64.40
59973;DHT22;55298;-36.624;-64.282;2022-07-22T09:43:29;4.80;66.40
59973;DHT22;55298;-36.624;-64.282;2022-07-22T09:46:02;4.80;66.60
59973;DHT22;55298;-36.624;-64.282;2022-07-22T09:48:31;4.70;66.70
59973;DHT22;55298;-36.624;-64.282;2022-07-22T09:50:59;4.70;67.40
59973;DHT22;55298;-36.624;-64.282;2022-07-22T09:53:30;4.80;67.20
59973;DHT22;55298;-36.624;-64.282;2022-07-22T09:56:01;4.60;66.00
59973;DHT22;55298;-36.624;-64.282;2022-07-22T09:58:31;4.60;65.20
59973;DHT22;55298;-36.624;-64.282;2022-07-22T10:01:04;4.70;65.00
59973;DHT22;55298;-36.624;-64.282;2022-07-22T10:03:35;4.70;64.40
59973;DHT22;55298;-36.624;-64.282;2022-07-22T10:06:06;4.70;64.30
59973;DHT22;55298;-36.624;-64.282;2022-07-22T10:08:37;4.70;64.30
59973;DHT22;55298;-36.624;-64.282;2022-07-22T10:11:06;4.60;63.90
59973;DHT22;55298;-36.624;-64.282;2022-07-22T10:13:38;4.50;64.00
59973;DHT22;55298;-36.624;-64.282;2022-07-22T10:16:10;4.50;64.70
59973;DHT22;55298;-36.624;-64.282;2022-07-22T10:18:43;4.50;65.00
59973;DHT22;55298;-36.624;-64.282;2022-07-22T10:21:13;4.40;64.90
59973;DHT22;55298;-36.624;-64.282;2022-07-22T10:24:07;4.30;65.50
59973;DHT22;55298;-36.624;-64.282;2022-07-22T10:26:54;4.30;65.10
59973;DHT22;55298;-36.624;-64.282;2022-07-22T10:29:41;4.30;65.80
59973;DHT22;55298;-36.624;-64.282;2022-07-22T10:32:23;4.40;65.70
59973;DHT22;55298;-36.624;-64.282;2022-07-22T10:35:23;5.50;65.80
59973;DHT22;55298;-36.624;-64.282;2022-07-22T10:37:54;4.40;65.00
59973;DHT22;55298;-36.624;-64.282;2022-07-22T10:40:26;4.40;65.30
59973;DHT22;55298;-36.624;-64.282;2022-07-22T10:43:04;4.40;65.50
59973;DHT22;55298;-36.624;-64.282;2022-07-22T10:45:41;4.50;65.30
59973;DHT22;55298;-36.624;-64.282;2022-07-22T10:48:15;4.60;65.20
59973;DHT22;55298;-36.624;-64.282;2022-07-22T10:50:47;4.60;65.20
59973;DHT22;55298;-36.624;-64.282;2022-07-22T10:53:19;4.60;64.70
59973;DHT22;55298;-36.624;-64.282;2022-07-22T10:56:05;4.70;65.10
59973;DHT22;55298;-36.624;-64.282;2022-07-22T10:58:55;4.70;65.80
59973;DHT22;55298;-36.624;-64.282;2022-07-22T11:01:29;4.70;64.60
59973;DHT22;55298;-36.624;-64.282;2022-07-22T11:04:19;4.60;65.30
59973;DHT22;55298;-36.624;-64.282;2022-07-22T11:06:51;4.60;65.90
59973;DHT22;55298;-36.624;-64.282;2022-07-22T11:09:30;4.60;66.20
59973;DHT22;55298;-36.624;-64.282;2022-07-22T11:12:00;4.60;66.40
59973;DHT22;55298;-36.624;-64.282;2022-07-22T11:14:31;4.60;66.10
59973;DHT22;55298;-36.624;-64.282;2022-07-22T11:17:07;4.50;66.20
59973;DHT22;55298;-36.624;-64.282;2022-07-22T11:19:37;4.60;66.40
59973;DHT22;55298;-36.624;-64.282;2022-07-22T11:22:10;4.60;66.50
59973;DHT22;55298;-36.624;-64.282;2022-07-22T11:24:41;4.60;66.90
59973;DHT22;55298;-36.624;-64.282;2022-07-22T11:27:18;4.50;67.20
59973;DHT22;55298;-36.624;-64.282;2022-07-22T11:29:53;4.50;67.70
59973;DHT22;55298;-36.624;-64.282;2022-07-22T11:32:24;4.40;68.20
59973;DHT22;55298;-36.624;-64.282;2022-07-22T11:34:58;4.30;68.70
59973;DHT22;55298;-36.624;-64.282;2022-07-22T11:37:29;4.30;69.20
59973;DHT22;55298;-36.624;-64.282;2022-07-22T11:40:04;4.20;69.60
59973;DHT22;55298;-36.624;-64.282;2022-07-22T11:42:35;4.20;70.30
59973;DHT22;55298;-36.624;-64.282;2022-07-22T11:45:05;4.20;70.60
59973;DHT22;55298;-36.624;-64.282;2022-07-22T11:47:34;4.30;69.90
59973;DHT22;55298;-36.624;-64.282;2022-07-22T11:50:03;4.30;69.90
59973;DHT22;55298;-36.624;-64.282;2022-07-22T11:52:32;4.50;70.00
59973;DHT22;55298;-36.624;-64.282;2022-07-22T11:55:02;4.60;69.60
59973;DHT22;55298;-36.624;-64.282;2022-07-22T11:57:33;4.90;69.10
59973;DHT22;55298;-36.624;-64.282;2022-07-22T12:00:14;5.40;67.40
59973;DHT22;55298;-36.624;-64.282;2022-07-22T12:02:45;5.70;65.40
59973;DHT22;55298;-36.624;-64.282;2022-07-22T12:05:13;5.70;66.10
59973;DHT22;55298;-36.624;-64.282;2022-07-22T12:07:43;5.80;65.50
59973;DHT22;55298;-36.624;-64.282;2022-07-22T12:10:11;6.10;65.00
59973;DHT22;55298;-36.624;-64.282;2022-07-22T12:12:42;6.10;65.30
59973;DHT22;55298;-36.624;-64.282;2022-07-22T12:15:10;6.20;66.00
59973;DHT22;55298;-36.624;-64.282;2022-07-22T12:17:39;6.00;67.40
59973;DHT22;55298;-36.624;-64.282;2022-07-22T12:20:12;6.00;68.10
59973;DHT22;55298;-36.624;-64.282;2022-07-22T12:22:47;6.10;68.80
59973;DHT22;55298;-36.624;-64.282;2022-07-22T12:25:17;6.30;68.70
59973;DHT22;55298;-36.624;-64.282;2022-07-22T12:28:00;6.40;68.90
59973;DHT22;55298;-36.624;-64.282;2022-07-22T12:30:28;6.80;66.60
59973;DHT22;55298;-36.624;-64.282;2022-07-22T12:32:58;6.60;67.20
59973;DHT22;55298;-36.624;-64.282;2022-07-22T12:35:28;6.80;66.50
59973;DHT22;55298;-36.624;-64.282;2022-07-22T12:38:07;6.70;68.10
59973;DHT22;55298;-36.624;-64.282;2022-07-22T12:40:37;6.90;67.70
59973;DHT22;55298;-36.624;-64.282;2022-07-22T12:43:08;7.00;68.30
59973;DHT22;55298;-36.624;-64.282;2022-07-22T12:45:39;7.60;65.80
59973;DHT22;55298;-36.624;-64.282;2022-07-22T12:48:09;7.60;65.80
59973;DHT22;55298;-36.624;-64.282;2022-07-22T12:50:42;7.50;66.40
59973;DHT22;55298;-36.624;-64.282;2022-07-22T12:53:13;7.70;66.60
59973;DHT22;55298;-36.624;-64.282;2022-07-22T12:55:45;8.00;66.10
59973;DHT22;55298;-36.624;-64.282;2022-07-22T12:58:16;8.00;66.00
59973;DHT22;55298;-36.624;-64.282;2022-07-22T13:00:47;8.00;66.60
59973;DHT22;55298;-36.624;-64.282;2022-07-22T13:03:16;8.70;63.40
59973;DHT22;55298;-36.624;-64.282;2022-07-22T13:05:51;8.70;64.10
59973;DHT22;55298;-36.624;-64.282;2022-07-22T13:08:22;8.90;63.10
59973;DHT22;55298;-36.624;-64.282;2022-07-22T13:10:52;9.10;62.70
59973;DHT22;55298;-36.624;-64.282;2022-07-22T13:13:21;8.50;64.30
59973;DHT22;55298;-36.624;-64.282;2022-07-22T13:15:52;8.50;65.10
59973;DHT22;55298;-36.624;-64.282;2022-07-22T13:18:21;8.00;67.40
59973;DHT22;55298;-36.624;-64.282;2022-07-22T13:20:53;8.00;68.20
59973;DHT22;55298;-36.624;-64.282;2022-07-22T13:23:22;7.80;69.30
59973;DHT22;55298;-36.624;-64.282;2022-07-22T13:25:51;7.80;69.80
59973;DHT22;55298;-36.624;-64.282;2022-07-22T13:28:19;7.80;70.10
59973;DHT22;55298;-36.624;-64.282;2022-07-22T13:30:49;7.80;70.80
59973;DHT22;55298;-36.624;-64.282;2022-07-22T13:33:18;7.80;70.70
59973;DHT22;55298;-36.624;-64.282;2022-07-22T13:35:47;7.90;70.70
59973;DHT22;55298;-36.624;-64.282;2022-07-22T13:38:16;7.90;71.40
59973;DHT22;55298;-36.624;-64.282;2022-07-22T13:40:45;8.10;69.80
59973;DHT22;55298;-36.624;-64.282;2022-07-22T13:43:22;8.10;69.50
59973;DHT22;55298;-36.624;-64.282;2022-07-22T13:45:53;9.70;71.20
59973;DHT22;55298;-36.624;-64.282;2022-07-22T13:48:22;9.10;65.40
59973;DHT22;55298;-36.624;-64.282;2022-07-22T13:50:52;9.00;66.10
59973;DHT22;55298;-36.624;-64.282;2022-07-22T13:53:20;8.60;66.60
59973;DHT22;55298;-36.624;-64.282;2022-07-22T13:55:49;8.40;67.30
59973;DHT22;55298;-36.624;-64.282;2022-07-22T13:58:17;8.40;68.10
59973;DHT22;55298;-36.624;-64.282;2022-07-22T14:00:45;8.40;68.70
59973;DHT22;55298;-36.624;-64.282;2022-07-22T14:03:15;8.40;69.30
59973;DHT22;55298;-36.624;-64.282;2022-07-22T14:05:44;8.40;69.60
59973;DHT22;55298;-36.624;-64.282;2022-07-22T14:08:12;8.40;69.40
59973;DHT22;55298;-36.624;-64.282;2022-07-22T14:10:41;8.40;69.80
59973;DHT22;55298;-36.624;-64.282;2022-07-22T14:13:10;8.40;69.10
59973;DHT22;55298;-36.624;-64.282;2022-07-22T14:15:38;8.40;69.80
59973;DHT22;55298;-36.624;-64.282;2022-07-22T14:18:08;8.40;70.00
59973;DHT22;55298;-36.624;-64.282;2022-07-22T14:20:37;8.40;69.40
59973;DHT22;55298;-36.624;-64.282;2022-07-22T14:23:07;8.40;70.10
59973;DHT22;55298;-36.624;-64.282;2022-07-22T14:25:38;8.50;69.60
59973;DHT22;55298;-36.624;-64.282;2022-07-22T14:28:08;8.50;70.30
59973;DHT22;55298;-36.624;-64.282;2022-07-22T14:30:36;8.50;69.80
59973;DHT22;55298;-36.624;-64.282;2022-07-22T14:33:05;8.60;69.70
59973;DHT22;55298;-36.624;-64.282;2022-07-22T14:35:33;8.60;69.60
59973;DHT22;55298;-36.624;-64.282;2022-07-22T14:38:02;8.70;69.40
59973;DHT22;55298;-36.624;-64.282;2022-07-22T14:40:30;8.80;69.10
59973;DHT22;55298;-36.624;-64.282;2022-07-22T14:43:00;8.80;68.70
59973;DHT22;55298;-36.624;-64.282;2022-07-22T14:45:29;8.90;68.70
59973;DHT22;55298;-36.624;-64.282;2022-07-22T14:47:57;9.00;68.70
59973;DHT22;55298;-36.624;-64.282;2022-07-22T14:50:25;9.00;68.80
59973;DHT22;55298;-36.624;-64.282;2022-07-22T14:52:55;9.20;66.70
59973;DHT22;55298;-36.624;-64.282;2022-07-22T14:55:23;9.40;67.30
59973;DHT22;55298;-36.624;-64.282;2022-07-22T14:57:52;9.80;64.70
59973;DHT22;55298;-36.624;-64.282;2022-07-22T15:00:20;9.60;65.20
59973;DHT22;55298;-36.624;-64.282;2022-07-22T15:02:49;9.60;64.80
59973;DHT22;55298;-36.624;-64.282;2022-07-22T15:05:17;9.50;64.50
59973;DHT22;55298;-36.624;-64.282;2022-07-22T15:07:45;9.50;65.10
59973;DHT22;55298;-36.624;-64.282;2022-07-22T15:21:28;9.80;64.70
59973;DHT22;55298;-36.624;-64.282;2022-07-22T15:27:27;10.30;62.70
59973;DHT22;55298;-36.624;-64.282;2022-07-22T15:29:56;10.50;61.60
59973;DHT22;55298;-36.624;-64.282;2022-07-22T15:32:25;10.70;61.00